Hartford, Connecticut
Traffic Map
Current Weather Conditions
Hartford, Connecticut
Overcast
Overcast
-9°
Feels Like: -13°
Wind Chill: -13° Ceiling: 2900
Heat Index: -9° Visibility: 10mi
Dew Point: -15° Wind: 5mph
Humidity: 64% Direction: 200° (SSW)
Pressure: 30.19in Gusts: 0mph
Raw Report DataKHFD 011153Z 20004KT 10SM BKN029 OVC036 M09/M15 A3019 RMK AO2 SLP224 T10941150 11089 21111 53009
Traffic Incident Summary
Active as of:
Severity:
Category:
InformationThere was an issue retrieving the traffic information for this location. Please try a different location or try again shortly.
Advertisements
Track Severe Weather on mobile